sensor_id;sensor_type;location;lat;lon;timestamp;noise_LAeq;noise_LA_min;noise_LA_max;noise_LA01;noise_LA95
58197;Laerm;43999;51.660;5.616;2023-04-24T00:02:02;45.67;39.21;64.54;;
58197;Laerm;43999;51.660;5.616;2023-04-24T00:04:30;55.61;39.70;72.89;;
58197;Laerm;43999;51.660;5.616;2023-04-24T00:06:59;69.80;37.52;96.81;;
58197;Laerm;43999;51.660;5.616;2023-04-24T00:09:27;55.28;39.46;78.12;;
58197;Laerm;43999;51.660;5.616;2023-04-24T00:11:54;51.03;36.91;68.00;;
58197;Laerm;43999;51.660;5.616;2023-04-24T00:14:23;54.15;37.70;78.68;;
58197;Laerm;43999;51.660;5.616;2023-04-24T00:16:50;54.20;38.37;75.33;;
58197;Laerm;43999;51.660;5.616;2023-04-24T00:19:18;52.15;38.67;77.56;;
58197;Laerm;43999;51.660;5.616;2023-04-24T00:21:49;62.92;39.34;89.85;;
58197;Laerm;43999;51.660;5.616;2023-04-24T00:24:20;49.87;38.21;65.82;;
58197;Laerm;43999;51.660;5.616;2023-04-24T00:26:48;54.00;38.21;79.06;;
58197;Laerm;43999;51.660;5.616;2023-04-24T00:29:16;51.80;38.05;76.34;;
58197;Laerm;43999;51.660;5.616;2023-04-24T00:31:44;59.85;39.34;84.73;;
58197;Laerm;43999;51.660;5.616;2023-04-24T00:34:13;54.84;39.46;75.81;;
58197;Laerm;43999;51.660;5.616;2023-04-24T00:36:40;50.71;38.52;75.58;;
58197;Laerm;43999;51.660;5.616;2023-04-24T00:39:08;51.63;38.05;74.58;;
58197;Laerm;43999;51.660;5.616;2023-04-24T00:41:38;53.47;39.58;78.60;;
58197;Laerm;43999;51.660;5.616;2023-04-24T00:44:06;51.28;38.21;72.59;;
58197;Laerm;43999;51.660;5.616;2023-04-24T00:46:33;44.04;38.21;63.91;;
58197;Laerm;43999;51.660;5.616;2023-04-24T00:49:02;59.78;37.88;86.99;;
58197;Laerm;43999;51.660;5.616;2023-04-24T00:51:29;66.25;37.32;98.61;;
58197;Laerm;43999;51.660;5.616;2023-04-24T00:53:58;54.27;38.21;80.06;;
58197;Laerm;43999;51.660;5.616;2023-04-24T00:56:26;50.92;37.88;69.80;;
58197;Laerm;43999;51.660;5.616;2023-04-24T00:58:54;55.35;38.52;79.61;;
58197;Laerm;43999;51.660;5.616;2023-04-24T01:01:25;58.39;39.21;79.64;;
58197;Laerm;43999;51.660;5.616;2023-04-24T01:03:53;51.56;37.88;74.87;;
58197;Laerm;43999;51.660;5.616;2023-04-24T01:06:23;49.23;38.52;69.85;;
58197;Laerm;43999;51.660;5.616;2023-04-24T01:08:55;55.02;38.05;75.05;;
58197;Laerm;43999;51.660;5.616;2023-04-24T01:11:22;50.20;38.37;73.97;;
58197;Laerm;43999;51.660;5.616;2023-04-24T01:13:50;60.01;39.08;81.17;;
58197;Laerm;43999;51.660;5.616;2023-04-24T01:16:19;60.91;38.99;80.60;;
58197;Laerm;43999;51.660;5.616;2023-04-24T01:18:48;61.08;38.21;84.79;;
58197;Laerm;43999;51.660;5.616;2023-04-24T01:21:20;50.93;39.34;76.54;;
58197;Laerm;43999;51.660;5.616;2023-04-24T01:23:48;47.96;37.88;74.01;;
58197;Laerm;43999;51.660;5.616;2023-04-24T01:26:19;56.00;38.81;76.96;;
58197;Laerm;43999;51.660;5.616;2023-04-24T01:28:48;59.70;37.52;82.35;;
58197;Laerm;43999;51.660;5.616;2023-04-24T01:31:16;50.61;38.37;74.96;;
58197;Laerm;43999;51.660;5.616;2023-04-24T01:33:43;47.32;38.67;70.40;;
58197;Laerm;43999;51.660;5.616;2023-04-24T01:36:11;56.87;40.80;75.61;;
58197;Laerm;43999;51.660;5.616;2023-04-24T01:38:39;62.83;39.58;83.13;;
58197;Laerm;43999;51.660;5.616;2023-04-24T01:41:06;59.25;40.03;82.57;;
58197;Laerm;43999;51.660;5.616;2023-04-24T01:43:34;52.21;41.75;73.82;;
58197;Laerm;43999;51.660;5.616;2023-04-24T01:46:01;57.91;41.61;79.16;;
58197;Laerm;43999;51.660;5.616;2023-04-24T01:48:29;53.57;42.79;73.91;;
58197;Laerm;43999;51.660;5.616;2023-04-24T01:50:58;56.33;40.80;86.65;;
58197;Laerm;43999;51.660;5.616;2023-04-24T01:53:27;50.99;40.62;79.00;;
58197;Laerm;43999;51.660;5.616;2023-04-24T01:55:55;61.70;44.07;83.68;;
58197;Laerm;43999;51.660;5.616;2023-04-24T01:58:25;55.88;42.35;79.27;;
58197;Laerm;43999;51.660;5.616;2023-04-24T02:00:53;69.33;42.29;92.55;;
58197;Laerm;43999;51.660;5.616;2023-04-24T02:03:25;65.74;42.69;88.38;;
58197;Laerm;43999;51.660;5.616;2023-04-24T02:05:55;58.88;44.39;85.41;;
58197;Laerm;43999;51.660;5.616;2023-04-24T02:08:24;61.53;47.10;76.92;;
58197;Laerm;43999;51.660;5.616;2023-04-24T02:10:51;55.37;43.09;72.42;;
58197;Laerm;43999;51.660;5.616;2023-04-24T02:13:19;57.79;41.68;86.08;;
58197;Laerm;43999;51.660;5.616;2023-04-24T02:15:47;51.43;41.22;69.11;;
58197;Laerm;43999;51.660;5.616;2023-04-24T02:18:15;61.21;40.80;86.79;;
58197;Laerm;43999;51.660;5.616;2023-04-24T02:20:43;58.23;41.55;81.19;;
58197;Laerm;43999;51.660;5.616;2023-04-24T02:23:11;58.96;42.76;78.35;;
58197;Laerm;43999;51.660;5.616;2023-04-24T02:25:39;62.62;42.22;88.74;;
58197;Laerm;43999;51.660;5.616;2023-04-24T02:28:09;53.41;41.61;73.29;;
58197;Laerm;43999;51.660;5.616;2023-04-24T02:30:38;66.55;41.75;93.61;;
58197;Laerm;43999;51.660;5.616;2023-04-24T02:33:06;60.21;41.82;82.94;;
58197;Laerm;43999;51.660;5.616;2023-04-24T02:35:36;58.19;42.16;81.14;;
58197;Laerm;43999;51.660;5.616;2023-04-24T02:38:03;61.01;41.53;86.44;;
58197;Laerm;43999;51.660;5.616;2023-04-24T02:40:33;49.57;41.82;74.36;;
58197;Laerm;43999;51.660;5.616;2023-04-24T02:43:01;61.17;42.03;83.88;;
58197;Laerm;43999;51.660;5.616;2023-04-24T02:45:29;54.06;40.98;76.23;;
58197;Laerm;43999;51.660;5.616;2023-04-24T02:47:57;58.96;42.22;80.00;;
58197;Laerm;43999;51.660;5.616;2023-04-24T02:50:31;60.89;42.53;85.35;;
58197;Laerm;43999;51.660;5.616;2023-04-24T02:53:00;58.37;41.89;78.58;;
58197;Laerm;43999;51.660;5.616;2023-04-24T02:55:28;62.19;42.98;85.03;;
58197;Laerm;43999;51.660;5.616;2023-04-24T02:57:58;59.49;42.35;81.81;;
58197;Laerm;43999;51.660;5.616;2023-04-24T03:00:25;57.27;41.14;82.61;;
58197;Laerm;43999;51.660;5.616;2023-04-24T03:02:55;56.71;41.53;83.78;;
58197;Laerm;43999;51.660;5.616;2023-04-24T03:05:23;60.85;41.61;75.84;;
58197;Laerm;43999;51.660;5.616;2023-04-24T03:07:51;51.99;41.22;75.66;;
58197;Laerm;43999;51.660;5.616;2023-04-24T03:10:23;58.45;42.16;81.97;;
58197;Laerm;43999;51.660;5.616;2023-04-24T03:12:50;56.72;42.35;77.35;;
58197;Laerm;43999;51.660;5.616;2023-04-24T03:15:20;62.05;42.76;87.90;;
58197;Laerm;43999;51.660;5.616;2023-04-24T03:17:48;52.04;42.22;70.10;;
58197;Laerm;43999;51.660;5.616;2023-04-24T03:20:15;59.38;42.35;77.97;;
58197;Laerm;43999;51.660;5.616;2023-04-24T03:22:45;60.45;43.14;81.52;;
58197;Laerm;43999;51.660;5.616;2023-04-24T03:25:13;54.96;42.47;70.35;;
58197;Laerm;43999;51.660;5.616;2023-04-24T03:27:40;51.48;42.41;73.81;;
58197;Laerm;43999;51.660;5.616;2023-04-24T03:30:23;62.53;42.59;87.00;;
58197;Laerm;43999;51.660;5.616;2023-04-24T03:32:56;57.64;43.51;73.17;;
58197;Laerm;43999;51.660;5.616;2023-04-24T03:35:28;61.47;44.58;79.10;;
58197;Laerm;43999;51.660;5.616;2023-04-24T03:37:58;61.00;42.98;82.78;;
58197;Laerm;43999;51.660;5.616;2023-04-24T03:40:50;57.34;44.11;71.30;;
58197;Laerm;43999;51.660;5.616;2023-04-24T03:43:40;63.69;44.07;84.88;;
58197;Laerm;43999;51.660;5.616;2023-04-24T03:46:09;62.31;45.89;82.99;;
58197;Laerm;43999;51.660;5.616;2023-04-24T03:48:47;60.01;44.35;77.32;;
58197;Laerm;43999;51.660;5.616;2023-04-24T03:51:19;53.94;43.63;79.91;;
58197;Laerm;43999;51.660;5.616;2023-04-24T03:53:49;59.20;45.83;81.49;;
58197;Laerm;43999;51.660;5.616;2023-04-24T03:56:20;65.67;45.20;86.22;;
58197;Laerm;43999;51.660;5.616;2023-04-24T03:58:48;62.19;45.63;76.99;;
58197;Laerm;43999;51.660;5.616;2023-04-24T04:01:15;65.73;49.07;87.28;;
58197;Laerm;43999;51.660;5.616;2023-04-24T04:03:54;58.20;44.87;75.42;;
58197;Laerm;43999;51.660;5.616;2023-04-24T04:06:24;61.03;46.66;77.50;;
58197;Laerm;43999;51.660;5.616;2023-04-24T04:08:53;62.80;47.12;77.67;;
58197;Laerm;43999;51.660;5.616;2023-04-24T04:11:22;61.77;47.08;79.60;;
58197;Laerm;43999;51.660;5.616;2023-04-24T04:13:51;56.94;45.96;77.49;;
58197;Laerm;43999;51.660;5.616;2023-04-24T04:16:25;61.04;44.83;80.57;;
58197;Laerm;43999;51.660;5.616;2023-04-24T04:19:02;65.62;43.39;82.68;;
58197;Laerm;43999;51.660;5.616;2023-04-24T04:21:30;61.57;44.43;79.49;;
58197;Laerm;43999;51.660;5.616;2023-04-24T04:24:34;64.81;47.12;88.32;;
58197;Laerm;43999;51.660;5.616;2023-04-24T04:27:07;67.83;48.00;87.75;;
58197;Laerm;43999;51.660;5.616;2023-04-24T04:29:44;66.84;46.02;89.06;;
58197;Laerm;43999;51.660;5.616;2023-04-24T04:32:14;66.30;47.67;87.64;;
58197;Laerm;43999;51.660;5.616;2023-04-24T04:34:42;70.95;48.05;92.72;;
58197;Laerm;43999;51.660;5.616;2023-04-24T04:37:15;66.96;51.22;82.36;;
58197;Laerm;43999;51.660;5.616;2023-04-24T04:39:52;68.03;52.19;83.41;;
58197;Laerm;43999;51.660;5.616;2023-04-24T04:42:26;65.74;49.16;77.34;;
58197;Laerm;43999;51.660;5.616;2023-04-24T04:44:56;63.48;49.55;76.35;;
58197;Laerm;43999;51.660;5.616;2023-04-24T04:47:37;65.08;52.47;84.55;;
58197;Laerm;43999;51.660;5.616;2023-04-24T04:50:09;67.18;54.02;79.39;;
58197;Laerm;43999;51.660;5.616;2023-04-24T04:52:48;69.86;51.60;84.62;;
58197;Laerm;43999;51.660;5.616;2023-04-24T04:55:23;67.80;51.87;81.10;;
58197;Laerm;43999;51.660;5.616;2023-04-24T04:58:14;68.93;51.70;82.42;;
58197;Laerm;43999;51.660;5.616;2023-04-24T05:00:44;66.04;54.79;81.19;;
58197;Laerm;43999;51.660;5.616;2023-04-24T05:03:20;68.50;53.19;87.45;;
58197;Laerm;43999;51.660;5.616;2023-04-24T05:05:55;68.40;52.13;81.66;;
58197;Laerm;43999;51.660;5.616;2023-04-24T05:08:24;71.14;55.50;88.59;;
58197;Laerm;43999;51.660;5.616;2023-04-24T05:10:55;68.34;55.20;81.45;;
58197;Laerm;43999;51.660;5.616;2023-04-24T05:13:34;68.86;52.44;81.40;;
58197;Laerm;43999;51.660;5.616;2023-04-24T05:16:18;67.69;51.23;86.91;;
58197;Laerm;43999;51.660;5.616;2023-04-24T05:18:46;66.33;51.57;80.76;;
58197;Laerm;43999;51.660;5.616;2023-04-24T05:21:18;70.85;58.74;81.43;;
58197;Laerm;43999;51.660;5.616;2023-04-24T05:23:50;69.97;57.66;81.55;;
58197;Laerm;43999;51.660;5.616;2023-04-24T05:26:29;71.48;58.48;82.22;;
58197;Laerm;43999;51.660;5.616;2023-04-24T05:28:58;72.28;58.14;82.72;;
58197;Laerm;43999;51.660;5.616;2023-04-24T05:31:25;72.07;59.34;82.88;;
58197;Laerm;43999;51.660;5.616;2023-04-24T05:33:55;70.84;59.01;82.39;;
58197;Laerm;43999;51.660;5.616;2023-04-24T05:36:23;72.97;60.06;87.65;;
58197;Laerm;43999;51.660;5.616;2023-04-24T05:38:55;72.21;59.76;83.40;;
58197;Laerm;43999;51.660;5.616;2023-04-24T05:41:31;72.42;59.94;82.12;;
58197;Laerm;43999;51.660;5.616;2023-04-24T05:43:59;72.84;59.95;83.27;;
58197;Laerm;43999;51.660;5.616;2023-04-24T05:46:27;71.96;63.62;83.69;;
58197;Laerm;43999;51.660;5.616;2023-04-24T05:48:56;73.15;58.42;83.01;;
58197;Laerm;43999;51.660;5.616;2023-04-24T05:51:24;72.38;60.48;81.85;;
58197;Laerm;43999;51.660;5.616;2023-04-24T05:53:51;73.15;57.91;82.10;;
58197;Laerm;43999;51.660;5.616;2023-04-24T05:56:19;72.23;60.19;83.45;;
58197;Laerm;43999;51.660;5.616;2023-04-24T05:58:52;73.13;62.72;83.71;;
58197;Laerm;43999;51.660;5.616;2023-04-24T06:01:24;73.45;59.37;83.15;;
58197;Laerm;43999;51.660;5.616;2023-04-24T06:04:04;72.80;59.25;93.89;;
58197;Laerm;43999;51.660;5.616;2023-04-24T06:06:35;72.15;60.32;82.88;;
58197;Laerm;43999;51.660;5.616;2023-04-24T06:09:03;71.07;57.84;82.29;;
58197;Laerm;43999;51.660;5.616;2023-04-24T06:11:32;72.99;57.85;81.73;;
58197;Laerm;43999;51.660;5.616;2023-04-24T06:14:03;71.26;53.49;83.37;;
58197;Laerm;43999;51.660;5.616;2023-04-24T06:16:49;69.27;54.07;81.16;;
58197;Laerm;43999;51.660;5.616;2023-04-24T06:19:31;71.64;57.43;82.03;;
58197;Laerm;43999;51.660;5.616;2023-04-24T06:22:02;71.24;58.68;79.74;;
58197;Laerm;43999;51.660;5.616;2023-04-24T06:24:34;70.25;57.78;81.32;;
58197;Laerm;43999;51.660;5.616;2023-04-24T06:27:01;72.54;61.44;83.34;;
58197;Laerm;43999;51.660;5.616;2023-04-24T06:29:29;68.98;56.16;82.04;;
58197;Laerm;43999;51.660;5.616;2023-04-24T06:31:59;69.69;57.07;78.73;;
58197;Laerm;43999;51.660;5.616;2023-04-24T06:34:32;70.82;57.60;81.15;;
58197;Laerm;43999;51.660;5.616;2023-04-24T06:37:04;71.19;58.11;80.95;;
58197;Laerm;43999;51.660;5.616;2023-04-24T06:39:34;71.98;59.91;83.26;;
58197;Laerm;43999;51.660;5.616;2023-04-24T06:42:03;72.86;61.04;83.98;;
58197;Laerm;43999;51.660;5.616;2023-04-24T06:44:33;72.09;57.84;81.09;;
58197;Laerm;43999;51.660;5.616;2023-04-24T06:47:14;70.16;59.60;83.46;;
58197;Laerm;43999;51.660;5.616;2023-04-24T06:49:43;73.68;64.71;81.79;;
58197;Laerm;43999;51.660;5.616;2023-04-24T06:52:19;73.88;63.29;83.93;;
58197;Laerm;43999;51.660;5.616;2023-04-24T06:55:03;72.98;63.83;81.09;;
58197;Laerm;43999;51.660;5.616;2023-04-24T06:57:34;74.65;64.66;83.30;;
58197;Laerm;43999;51.660;5.616;2023-04-24T07:00:15;73.35;60.04;84.01;;
58197;Laerm;43999;51.660;5.616;2023-04-24T07:02:42;70.31;58.11;81.17;;
58197;Laerm;43999;51.660;5.616;2023-04-24T07:05:14;71.54;59.41;80.60;;
58197;Laerm;43999;51.660;5.616;2023-04-24T07:07:44;72.17;60.58;82.02;;
58197;Laerm;43999;51.660;5.616;2023-04-24T07:10:18;72.62;62.12;83.37;;
58197;Laerm;43999;51.660;5.616;2023-04-24T07:12:54;73.41;61.14;82.09;;
58197;Laerm;43999;51.660;5.616;2023-04-24T07:15:26;72.78;60.73;80.79;;
58197;Laerm;43999;51.660;5.616;2023-04-24T07:18:00;73.00;60.61;83.97;;
58197;Laerm;43999;51.660;5.616;2023-04-24T07:20:33;73.20;59.86;84.52;;
58197;Laerm;43999;51.660;5.616;2023-04-24T07:23:02;72.66;60.62;83.89;;
58197;Laerm;43999;51.660;5.616;2023-04-24T07:25:37;71.62;59.59;82.80;;
58197;Laerm;43999;51.660;5.616;2023-04-24T07:28:08;72.67;61.83;83.26;;
58197;Laerm;43999;51.660;5.616;2023-04-24T07:30:36;70.59;57.83;84.61;;
58197;Laerm;43999;51.660;5.616;2023-04-24T07:33:07;73.22;59.87;82.57;;
58197;Laerm;43999;51.660;5.616;2023-04-24T07:35:42;72.84;60.23;82.09;;
58197;Laerm;43999;51.660;5.616;2023-04-24T07:38:13;74.47;60.92;89.43;;
58197;Laerm;43999;51.660;5.616;2023-04-24T07:40:49;72.99;62.83;85.60;;
58197;Laerm;43999;51.660;5.616;2023-04-24T07:43:20;74.22;64.10;81.88;;
58197;Laerm;43999;51.660;5.616;2023-04-24T07:45:57;73.24;63.42;85.24;;
58197;Laerm;43999;51.660;5.616;2023-04-24T07:48:26;74.48;62.51;82.31;;
58197;Laerm;43999;51.660;5.616;2023-04-24T07:51:02;73.58;60.35;82.86;;
58197;Laerm;43999;51.660;5.616;2023-04-24T07:53:31;74.61;63.88;82.85;;
58197;Laerm;43999;51.660;5.616;2023-04-24T07:56:02;74.66;61.57;82.65;;
58197;Laerm;43999;51.660;5.616;2023-04-24T07:58:29;75.26;63.10;85.74;;
58197;Laerm;43999;51.660;5.616;2023-04-24T08:00:59;73.39;62.62;83.06;;
58197;Laerm;43999;51.660;5.616;2023-04-24T08:03:42;74.03;60.25;82.21;;
58197;Laerm;43999;51.660;5.616;2023-04-24T08:06:12;74.35;60.64;82.61;;
58197;Laerm;43999;51.660;5.616;2023-04-24T08:08:41;74.15;64.73;81.58;;
58197;Laerm;43999;51.660;5.616;2023-04-24T08:11:08;72.42;61.75;82.19;;
58197;Laerm;43999;51.660;5.616;2023-04-24T08:13:41;75.14;67.35;83.12;;
58197;Laerm;43999;51.660;5.616;2023-04-24T08:16:19;73.03;60.25;81.69;;
58197;Laerm;43999;51.660;5.616;2023-04-24T08:18:47;72.87;63.24;84.74;;
58197;Laerm;43999;51.660;5.616;2023-04-24T08:21:16;72.75;60.03;83.79;;
58197;Laerm;43999;51.660;5.616;2023-04-24T08:23:56;74.55;62.73;83.19;;
58197;Laerm;43999;51.660;5.616;2023-04-24T08:26:35;71.54;61.51;80.61;;
58197;Laerm;43999;51.660;5.616;2023-04-24T08:29:34;72.71;61.54;81.82;;
58197;Laerm;43999;51.660;5.616;2023-04-24T08:32:13;74.08;58.06;86.54;;
58197;Laerm;43999;51.660;5.616;2023-04-24T08:34:44;73.00;61.92;82.49;;
58197;Laerm;43999;51.660;5.616;2023-04-24T08:37:45;72.71;59.38;85.10;;
58197;Laerm;43999;51.660;5.616;2023-04-24T08:40:28;75.44;64.17;84.35;;
58197;Laerm;43999;51.660;5.616;2023-04-24T08:42:59;73.97;58.87;89.91;;
58197;Laerm;43999;51.660;5.616;2023-04-24T08:45:33;73.03;62.45;79.72;;
58197;Laerm;43999;51.660;5.616;2023-04-24T08:48:04;72.98;59.44;80.99;;
58197;Laerm;43999;51.660;5.616;2023-04-24T08:50:38;71.92;57.97;80.91;;
58197;Laerm;43999;51.660;5.616;2023-04-24T08:53:10;70.66;58.66;78.64;;
58197;Laerm;43999;51.660;5.616;2023-04-24T08:55:47;71.05;59.74;85.26;;
58197;Laerm;43999;51.660;5.616;2023-04-24T08:58:24;71.03;57.83;80.36;;
58197;Laerm;43999;51.660;5.616;2023-04-24T09:00:55;70.30;57.51;77.45;;
58197;Laerm;43999;51.660;5.616;2023-04-24T09:03:26;71.27;62.74;77.34;;
58197;Laerm;43999;51.660;5.616;2023-04-24T09:05:57;69.79;59.22;77.61;;
58197;Laerm;43999;51.660;5.616;2023-04-24T09:08:28;68.81;58.84;76.67;;
58197;Laerm;43999;51.660;5.616;2023-04-24T09:10:56;70.30;61.02;79.29;;
58197;Laerm;43999;51.660;5.616;2023-04-24T09:13:33;68.76;57.31;79.20;;
58197;Laerm;43999;51.660;5.616;2023-04-24T09:16:03;68.41;57.46;78.92;;
58197;Laerm;43999;51.660;5.616;2023-04-24T09:18:36;69.94;55.16;81.58;;
58197;Laerm;43999;51.660;5.616;2023-04-24T09:21:10;69.39;59.97;81.74;;
58197;Laerm;43999;51.660;5.616;2023-04-24T09:23:39;67.80;57.28;77.13;;
58197;Laerm;43999;51.660;5.616;2023-04-24T09:26:11;69.82;59.47;78.99;;
58197;Laerm;43999;51.660;5.616;2023-04-24T09:28:43;70.35;60.89;82.37;;
58197;Laerm;43999;51.660;5.616;2023-04-24T09:31:18;69.05;56.44;87.50;;
58197;Laerm;43999;51.660;5.616;2023-04-24T09:34:08;68.08;58.46;76.69;;
58197;Laerm;43999;51.660;5.616;2023-04-24T09:36:44;67.83;55.96;76.86;;
58197;Laerm;43999;51.660;5.616;2023-04-24T09:39:18;69.24;54.19;80.87;;
58197;Laerm;43999;51.660;5.616;2023-04-24T09:41:56;68.03;56.58;77.50;;
58197;Laerm;43999;51.660;5.616;2023-04-24T09:44:28;68.12;56.37;84.25;;
58197;Laerm;43999;51.660;5.616;2023-04-24T09:47:08;67.32;55.84;82.63;;
58197;Laerm;43999;51.660;5.616;2023-04-24T09:49:38;67.35;56.55;83.49;;
58197;Laerm;43999;51.660;5.616;2023-04-24T09:52:11;67.83;57.98;89.93;;
58197;Laerm;43999;51.660;5.616;2023-04-24T09:54:40;69.43;58.78;83.14;;
58197;Laerm;43999;51.660;5.616;2023-04-24T09:57:09;67.14;57.76;82.83;;
58197;Laerm;43999;51.660;5.616;2023-04-24T09:59:46;66.79;53.15;77.04;;
58197;Laerm;43999;51.660;5.616;2023-04-24T10:02:20;68.15;58.56;80.93;;
58197;Laerm;43999;51.660;5.616;2023-04-24T10:04:57;67.22;53.92;89.97;;
58197;Laerm;43999;51.660;5.616;2023-04-24T10:07:27;65.86;52.92;76.79;;
58197;Laerm;43999;51.660;5.616;2023-04-24T10:09:57;68.79;56.44;82.80;;
58197;Laerm;43999;51.660;5.616;2023-04-24T10:12:33;65.87;54.46;77.07;;
58197;Laerm;43999;51.660;5.616;2023-04-24T10:15:02;65.94;52.26;79.42;;
58197;Laerm;43999;51.660;5.616;2023-04-24T10:17:32;67.28;56.90;91.99;;
58197;Laerm;43999;51.660;5.616;2023-04-24T10:20:01;66.03;51.08;84.51;;
58197;Laerm;43999;51.660;5.616;2023-04-24T10:22:29;67.99;54.11;91.77;;
58197;Laerm;43999;51.660;5.616;2023-04-24T10:25:00;66.36;52.50;87.11;;
58197;Laerm;43999;51.660;5.616;2023-04-24T10:27:31;66.78;54.05;77.44;;
58197;Laerm;43999;51.660;5.616;2023-04-24T10:30:02;66.76;53.89;88.23;;
58197;Laerm;43999;51.660;5.616;2023-04-24T10:32:29;65.62;53.92;83.66;;
58197;Laerm;43999;51.660;5.616;2023-04-24T10:34:57;67.99;58.24;80.87;;
58197;Laerm;43999;51.660;5.616;2023-04-24T10:37:27;67.08;54.20;85.86;;
58197;Laerm;43999;51.660;5.616;2023-04-24T10:39:56;71.51;55.12;94.39;;
58197;Laerm;43999;51.660;5.616;2023-04-24T10:42:27;66.80;54.11;81.38;;
58197;Laerm;43999;51.660;5.616;2023-04-24T10:44:55;64.66;53.77;77.81;;
58197;Laerm;43999;51.660;5.616;2023-04-24T10:47:25;68.02;55.95;91.54;;
58197;Laerm;43999;51.660;5.616;2023-04-24T10:50:00;66.11;58.19;75.78;;
58197;Laerm;43999;51.660;5.616;2023-04-24T10:52:48;67.34;55.00;86.79;;
58197;Laerm;43999;51.660;5.616;2023-04-24T10:55:45;66.03;55.88;80.99;;
58197;Laerm;43999;51.660;5.616;2023-04-24T10:58:36;65.22;56.71;76.34;;
58197;Laerm;43999;51.660;5.616;2023-04-24T11:01:04;63.88;53.54;77.94;;
58197;Laerm;43999;51.660;5.616;2023-04-24T11:03:50;64.46;54.67;80.80;;
58197;Laerm;43999;51.660;5.616;2023-04-24T11:06:36;63.32;54.72;74.25;;
58197;Laerm;43999;51.660;5.616;2023-04-24T11:09:10;64.44;53.09;76.47;;
58197;Laerm;43999;51.660;5.616;2023-04-24T11:11:46;66.17;54.57;83.44;;
58197;Laerm;43999;51.660;5.616;2023-04-24T11:14:22;64.97;52.60;79.40;;
58197;Laerm;43999;51.660;5.616;2023-04-24T11:16:54;64.92;53.60;84.23;;
58197;Laerm;43999;51.660;5.616;2023-04-24T11:19:26;64.35;52.35;85.03;;
58197;Laerm;43999;51.660;5.616;2023-04-24T11:22:06;63.02;52.39;80.92;;
58197;Laerm;43999;51.660;5.616;2023-04-24T11:27:22;64.25;50.41;79.68;;
58197;Laerm;43999;51.660;5.616;2023-04-24T11:35:13;63.45;51.44;79.94;;
58197;Laerm;43999;51.660;5.616;2023-04-24T11:37:46;63.75;53.35;80.54;;
58197;Laerm;43999;51.660;5.616;2023-04-24T11:40:34;65.90;55.89;82.16;;
58197;Laerm;43999;51.660;5.616;2023-04-24T11:43:04;66.92;54.95;82.59;;
58197;Laerm;43999;51.660;5.616;2023-04-24T11:45:34;64.16;52.96;81.16;;
58197;Laerm;43999;51.660;5.616;2023-04-24T11:48:07;64.99;53.62;77.89;;
58197;Laerm;43999;51.660;5.616;2023-04-24T11:50:34;65.62;56.43;78.39;;
58197;Laerm;43999;51.660;5.616;2023-04-24T11:53:05;64.98;52.33;82.69;;
58197;Laerm;43999;51.660;5.616;2023-04-24T11:55:32;63.79;53.62;83.26;;
58197;Laerm;43999;51.660;5.616;2023-04-24T11:58:01;64.62;56.49;77.34;;
58197;Laerm;43999;51.660;5.616;2023-04-24T12:00:32;63.83;54.07;73.90;;
58197;Laerm;43999;51.660;5.616;2023-04-24T12:03:11;62.66;56.16;72.41;;
58197;Laerm;43999;51.660;5.616;2023-04-24T12:05:41;62.04;52.06;75.61;;
58197;Laerm;43999;51.660;5.616;2023-04-24T12:08:09;63.42;52.91;82.51;;
58197;Laerm;43999;51.660;5.616;2023-04-24T12:10:38;65.58;53.57;84.60;;
58197;Laerm;43999;51.660;5.616;2023-04-24T12:13:09;63.91;52.91;77.54;;
58197;Laerm;43999;51.660;5.616;2023-04-24T12:15:40;68.17;54.74;93.93;;
58197;Laerm;43999;51.660;5.616;2023-04-24T12:18:12;64.72;56.12;80.52;;
58197;Laerm;43999;51.660;5.616;2023-04-24T12:20:41;63.85;53.53;75.39;;
58197;Laerm;43999;51.660;5.616;2023-04-24T12:23:10;66.01;53.45;91.47;;
58197;Laerm;43999;51.660;5.616;2023-04-24T12:25:39;63.74;52.94;79.48;;
58197;Laerm;43999;51.660;5.616;2023-04-24T12:28:36;62.18;50.27;80.78;;
58197;Laerm;43999;51.660;5.616;2023-04-24T12:31:06;63.68;56.06;74.42;;
58197;Laerm;43999;51.660;5.616;2023-04-24T12:33:35;77.92;62.75;91.08;;
58197;Laerm;43999;51.660;5.616;2023-04-24T12:36:05;72.76;55.36;92.02;;
58197;Laerm;43999;51.660;5.616;2023-04-24T12:38:34;64.15;55.19;76.98;;
58197;Laerm;43999;51.660;5.616;2023-04-24T12:41:13;63.92;55.69;80.29;;
58197;Laerm;43999;51.660;5.616;2023-04-24T12:43:54;63.90;54.79;76.96;;
58197;Laerm;43999;51.660;5.616;2023-04-24T12:46:22;65.32;56.54;78.62;;
58197;Laerm;43999;51.660;5.616;2023-04-24T12:49:00;65.66;56.38;83.54;;
58197;Laerm;43999;51.660;5.616;2023-04-24T12:51:31;66.17;59.48;81.86;;
58197;Laerm;43999;51.660;5.616;2023-04-24T12:54:00;66.01;53.17;74.13;;
58197;Laerm;43999;51.660;5.616;2023-04-24T12:56:29;65.31;53.86;81.11;;
58197;Laerm;43999;51.660;5.616;2023-04-24T12:59:09;64.59;57.19;74.44;;
58197;Laerm;43999;51.660;5.616;2023-04-24T13:01:37;63.82;53.92;74.65;;
58197;Laerm;43999;51.660;5.616;2023-04-24T13:04:06;66.57;55.63;84.38;;
58197;Laerm;43999;51.660;5.616;2023-04-24T13:06:34;63.56;52.39;77.79;;
58197;Laerm;43999;51.660;5.616;2023-04-24T13:09:05;65.41;51.95;79.11;;
58197;Laerm;43999;51.660;5.616;2023-04-24T13:11:32;66.64;56.64;83.73;;
58197;Laerm;43999;51.660;5.616;2023-04-24T13:14:00;65.10;57.48;77.85;;
58197;Laerm;43999;51.660;5.616;2023-04-24T13:16:28;63.76;56.43;74.03;;
58197;Laerm;43999;51.660;5.616;2023-04-24T13:18:56;64.69;56.59;80.65;;
58197;Laerm;43999;51.660;5.616;2023-04-24T13:21:31;64.46;54.27;75.89;;
58197;Laerm;43999;51.660;5.616;2023-04-24T13:24:00;63.00;52.02;83.11;;
58197;Laerm;43999;51.660;5.616;2023-04-24T13:26:28;65.13;52.76;78.18;;
58197;Laerm;43999;51.660;5.616;2023-04-24T13:29:06;64.13;53.06;78.03;;
58197;Laerm;43999;51.660;5.616;2023-04-24T13:31:35;66.94;58.17;89.29;;
58197;Laerm;43999;51.660;5.616;2023-04-24T13:34:03;64.50;54.20;83.08;;
58197;Laerm;43999;51.660;5.616;2023-04-24T13:36:31;65.81;52.08;88.72;;
58197;Laerm;43999;51.660;5.616;2023-04-24T13:38:59;66.54;55.08;84.67;;
58197;Laerm;43999;51.660;5.616;2023-04-24T13:41:27;64.98;51.97;79.00;;
58197;Laerm;43999;51.660;5.616;2023-04-24T13:43:55;65.61;51.59;82.87;;
58197;Laerm;43999;51.660;5.616;2023-04-24T13:46:22;66.17;55.65;86.20;;
58197;Laerm;43999;51.660;5.616;2023-04-24T13:48:58;67.67;57.06;87.21;;
58197;Laerm;43999;51.660;5.616;2023-04-24T13:51:28;65.15;56.75;80.09;;
58197;Laerm;43999;51.660;5.616;2023-04-24T13:53:57;65.46;51.31;81.42;;
58197;Laerm;43999;51.660;5.616;2023-04-24T13:56:26;68.37;56.37;87.50;;
58197;Laerm;43999;51.660;5.616;2023-04-24T13:58:54;66.74;55.39;89.02;;
58197;Laerm;43999;51.660;5.616;2023-04-24T14:01:24;66.22;57.63;84.25;;
58197;Laerm;43999;51.660;5.616;2023-04-24T14:03:53;66.43;53.31;92.06;;
58197;Laerm;43999;51.660;5.616;2023-04-24T14:06:26;64.12;55.05;80.95;;
58197;Laerm;43999;51.660;5.616;2023-04-24T14:08:54;65.00;54.64;81.68;;
58197;Laerm;43999;51.660;5.616;2023-04-24T14:11:27;65.39;54.18;84.92;;
58197;Laerm;43999;51.660;5.616;2023-04-24T14:14:03;64.54;53.83;78.65;;
58197;Laerm;43999;51.660;5.616;2023-04-24T14:16:33;65.50;55.93;78.66;;
58197;Laerm;43999;51.660;5.616;2023-04-24T14:19:02;64.36;55.64;77.77;;